createdAt,value
2018-05-18T00:01:32.250Z,14.10
2018-05-18T00:03:59.867Z,18.67
2018-05-18T00:06:27.434Z,17.07
2018-05-18T00:08:54.991Z,17.23
2018-05-18T00:11:22.582Z,16.17
2018-05-18T00:13:50.145Z,21.53
2018-05-18T00:16:17.702Z,20.03
2018-05-18T00:18:45.293Z,20.67
2018-05-18T00:21:13.618Z,16.87
2018-05-18T00:23:41.168Z,22.03
2018-05-18T00:26:08.805Z,22.33
2018-05-18T00:28:36.341Z,24.07
2018-05-18T00:31:03.902Z,25.77
2018-05-18T00:33:31.506Z,26.27
2018-05-18T00:35:59.068Z,18.97
2018-05-18T00:38:26.616Z,15.70
2018-05-18T00:40:54.214Z,19.40
2018-05-18T00:43:21.772Z,16.30
2018-05-18T00:45:49.325Z,17.60
2018-05-18T00:48:16.932Z,21.27
2018-05-18T00:50:44.488Z,23.47
2018-05-18T00:53:12.041Z,18.53
2018-05-18T00:55:42.342Z,18.40
2018-05-18T00:58:09.891Z,23.20
2018-05-18T01:00:37.466Z,18.67
2018-05-18T01:03:05.054Z,20.30
2018-05-18T01:05:32.620Z,23.33
2018-05-18T01:08:00.177Z,21.85
2018-05-18T01:10:28.242Z,19.63
2018-05-18T01:12:55.798Z,28.85
2018-05-18T01:15:23.364Z,23.60
2018-05-18T01:17:50.949Z,20.90
2018-05-18T01:20:18.509Z,29.27
2018-05-18T01:22:46.078Z,21.87
2018-05-18T01:25:14.449Z,16.30
2018-05-18T01:27:42.042Z,17.50
2018-05-18T01:30:09.569Z,21.13
2018-05-18T01:32:37.504Z,17.43
2018-05-18T01:35:05.062Z,17.43
2018-05-18T01:37:32.628Z,23.83
2018-05-18T01:40:00.216Z,24.47
2018-05-18T01:42:27.778Z,22.20
2018-05-18T01:44:55.337Z,20.05
2018-05-18T01:47:22.933Z,24.10
2018-05-18T01:49:50.500Z,23.30
2018-05-18T01:52:18.058Z,22.37
2018-05-18T01:54:46.072Z,15.40
2018-05-18T01:57:13.643Z,17.10
2018-05-18T01:59:41.191Z,20.03
2018-05-18T02:02:08.838Z,18.50
2018-05-18T02:04:36.377Z,17.50
2018-05-18T02:07:03.963Z,26.57
2018-05-18T02:09:31.549Z,21.43
2018-05-18T02:11:59.115Z,19.00
2018-05-18T02:14:26.669Z,24.83
2018-05-18T02:16:54.296Z,21.20
2018-05-18T02:19:21.856Z,18.13
2018-05-18T02:21:49.414Z,21.10
2018-05-18T02:24:16.997Z,18.67
2018-05-18T02:26:44.567Z,18.93
2018-05-18T02:29:12.123Z,22.13
2018-05-18T02:31:39.744Z,18.73
2018-05-18T02:34:07.305Z,20.90
2018-05-18T02:36:35.617Z,19.57
2018-05-18T02:39:03.235Z,19.00
2018-05-18T02:41:30.788Z,20.50
2018-05-18T02:43:58.356Z,19.27
2018-05-18T02:46:25.939Z,26.10
2018-05-18T02:48:53.515Z,20.10
2018-05-18T02:51:21.107Z,24.83
2018-05-18T02:53:48.701Z,20.10
2018-05-18T02:56:16.274Z,19.73
2018-05-18T02:58:43.818Z,21.17
2018-05-18T03:01:11.421Z,19.80
2018-05-18T03:03:38.979Z,20.03
2018-05-18T03:06:06.540Z,17.83
2018-05-18T03:08:34.180Z,18.87
2018-05-18T03:11:02.497Z,14.63
2018-05-18T03:13:30.075Z,19.57
2018-05-18T03:15:57.669Z,21.53
2018-05-18T03:18:25.228Z,26.97
2018-05-18T03:20:53.598Z,27.30
2018-05-18T03:23:21.178Z,20.73
2018-05-18T03:25:49.521Z,17.30
2018-05-18T03:28:17.082Z,18.43
2018-05-18T03:30:44.679Z,25.50
2018-05-18T03:33:13.006Z,24.63
2018-05-18T03:35:40.573Z,25.07
2018-05-18T03:38:08.163Z,22.20
2018-05-18T03:40:35.744Z,19.70
2018-05-18T03:43:04.068Z,23.03
2018-05-18T03:45:31.870Z,24.53
2018-05-18T03:47:59.434Z,25.63
2018-05-18T03:50:26.985Z,22.40
2018-05-18T03:52:54.589Z,22.40
2018-05-18T03:55:22.151Z,25.70
2018-05-18T03:57:49.726Z,24.63
2018-05-18T04:00:17.322Z,31.83
2018-05-18T04:03:21.864Z,26.73
2018-05-18T04:06:26.620Z,29.87
2018-05-18T04:08:54.966Z,32.47
2018-05-18T04:11:22.530Z,33.03
2018-05-18T04:13:50.124Z,18.87
2018-05-18T04:16:18.476Z,19.77
2018-05-18T04:18:46.062Z,20.40
2018-05-18T04:21:13.623Z,26.65
2018-05-18T04:23:41.944Z,21.03
2018-05-18T04:26:09.520Z,18.33
2018-05-18T04:28:37.123Z,20.80
2018-05-18T04:31:04.682Z,19.17
2018-05-18T04:33:32.240Z,23.17
2018-05-18T04:35:59.829Z,20.83
2018-05-18T04:38:27.390Z,23.53
2018-05-18T04:40:54.936Z,23.42
2018-05-18T04:43:23.399Z,19.00
2018-05-18T04:45:50.859Z,19.07
2018-05-18T04:48:18.428Z,19.83
2018-05-18T04:50:46.042Z,23.27
2018-05-18T04:53:13.601Z,16.90
2018-05-18T04:55:41.196Z,19.40
2018-05-18T04:58:08.788Z,25.13
2018-05-18T05:00:37.110Z,18.60
2018-05-18T05:03:04.671Z,19.83
2018-05-18T05:05:32.369Z,16.00
2018-05-18T05:07:59.815Z,16.17
2018-05-18T05:10:27.372Z,20.80
2018-05-18T05:12:54.972Z,22.50
2018-05-18T05:15:23.297Z,20.27
2018-05-18T05:17:50.975Z,20.50
2018-05-18T05:20:18.451Z,20.10
2018-05-18T05:22:46.012Z,14.33
2018-05-18T05:25:13.572Z,17.60
2018-05-18T05:27:41.173Z,19.03
2018-05-18T05:30:08.728Z,18.33
2018-05-18T05:32:36.390Z,17.13
2018-05-18T05:35:03.970Z,14.57
2018-05-18T05:37:31.525Z,18.20
2018-05-18T05:39:59.083Z,18.63
2018-05-18T05:42:27.071Z,14.93
2018-05-18T05:44:54.750Z,14.03
2018-05-18T05:47:22.392Z,17.27
2018-05-18T05:49:50.002Z,20.73
2018-05-18T05:52:17.567Z,14.83
2018-05-18T05:54:45.129Z,18.27
2018-05-18T05:57:12.758Z,19.53
2018-05-18T05:59:40.323Z,16.27
2018-05-18T06:02:07.887Z,21.60
2018-05-18T06:04:35.482Z,17.63
2018-05-18T06:07:03.807Z,16.73
2018-05-18T06:09:31.361Z,15.07
2018-05-18T06:11:58.968Z,14.60
2018-05-18T06:14:26.528Z,17.33
2018-05-18T06:16:54.095Z,17.13
2018-05-18T06:19:22.953Z,22.30
2018-05-18T06:21:50.532Z,17.87
2018-05-18T06:24:18.089Z,19.20
2018-05-18T06:26:45.772Z,18.67
2018-05-18T06:29:13.339Z,19.93
2018-05-18T06:31:40.884Z,20.60
2018-05-18T06:34:08.504Z,17.13
2018-05-18T06:36:36.057Z,17.90
2018-05-18T06:39:03.625Z,17.73
2018-05-18T06:41:31.603Z,17.40
2018-05-18T06:43:59.152Z,16.63
2018-05-18T06:46:26.712Z,17.90
2018-05-18T06:48:54.373Z,13.73
2018-05-18T06:51:21.933Z,15.30
2018-05-18T06:53:49.494Z,19.60
2018-05-18T06:56:17.595Z,17.53
2018-05-18T06:58:45.227Z,15.53
2018-05-18T07:01:12.749Z,16.73
2018-05-18T07:03:41.142Z,20.67
2018-05-18T07:06:09.477Z,18.43
2018-05-18T07:08:39.227Z,12.47
2018-05-18T07:11:06.832Z,15.37
2018-05-18T07:13:34.398Z,14.87
2018-05-18T07:16:01.948Z,16.83
2018-05-18T07:18:29.596Z,16.93
2018-05-18T07:20:57.956Z,16.70
2018-05-18T07:23:25.516Z,19.30
2018-05-18T07:25:54.194Z,22.30
2018-05-18T07:28:21.756Z,16.47
2018-05-18T07:30:49.317Z,16.85
2018-05-18T07:33:16.934Z,23.08
2018-05-18T07:35:44.517Z,15.50
2018-05-18T07:38:12.082Z,15.93
2018-05-18T07:40:39.677Z,16.43
2018-05-18T07:43:07.997Z,16.50
2018-05-18T07:45:51.484Z,16.67
2018-05-18T07:48:19.003Z,13.13
2018-05-18T07:50:46.571Z,16.77
2018-05-18T07:53:14.219Z,19.37
2018-05-18T07:55:41.785Z,17.87
2018-05-18T07:58:09.356Z,16.70
2018-05-18T08:00:37.520Z,16.90
2018-05-18T08:03:05.090Z,15.20
2018-05-18T08:05:32.653Z,16.83
2018-05-18T08:08:00.271Z,19.67
2018-05-18T08:10:27.831Z,18.67
2018-05-18T08:12:55.404Z,11.27
2018-05-18T08:15:23.008Z,14.47
2018-05-18T08:17:50.578Z,14.27
2018-05-18T08:20:18.150Z,17.48
2018-05-18T08:22:46.110Z,13.23
2018-05-18T08:25:13.675Z,13.40
2018-05-18T08:27:41.374Z,17.63
2018-05-18T08:30:08.843Z,13.03
2018-05-18T08:32:36.415Z,14.83
2018-05-18T08:35:03.983Z,19.03
2018-05-18T08:37:32.176Z,15.40
2018-05-18T08:39:59.754Z,16.13
2018-05-18T08:42:27.326Z,15.47
2018-05-18T08:44:54.971Z,15.60
2018-05-18T08:47:22.537Z,14.73
2018-05-18T08:49:50.097Z,14.67
2018-05-18T08:52:17.714Z,20.07
2018-05-18T08:54:45.278Z,16.10
2018-05-18T08:57:12.837Z,16.13
2018-05-18T08:59:40.491Z,15.17
2018-05-18T09:02:08.044Z,18.10
2018-05-18T09:04:36.379Z,18.27
2018-05-18T09:07:04.136Z,17.93
2018-05-18T09:09:31.671Z,14.10
2018-05-18T09:12:00.225Z,16.77
2018-05-18T09:14:27.824Z,12.30
2018-05-18T09:16:55.378Z,15.33
2018-05-18T09:19:22.938Z,17.43
2018-05-18T09:21:50.605Z,12.67
2018-05-18T09:24:18.170Z,12.67
2018-05-18T09:26:45.719Z,11.37
2018-05-18T09:29:13.334Z,15.20
2018-05-18T09:31:40.891Z,12.43
2018-05-18T09:34:08.469Z,15.20
2018-05-18T09:36:36.073Z,17.10
2018-05-18T09:39:03.643Z,15.53
2018-05-18T09:41:31.207Z,12.33
2018-05-18T09:43:59.500Z,15.03
2018-05-18T09:46:27.076Z,11.10
2018-05-18T09:48:54.615Z,15.30
2018-05-18T09:51:22.674Z,12.97
2018-05-18T09:53:50.240Z,10.53
2018-05-18T09:56:17.803Z,13.90
2018-05-18T09:58:46.408Z,10.47
2018-05-18T10:01:13.982Z,13.03
2018-05-18T10:03:41.547Z,13.35
2018-05-18T10:06:09.198Z,13.52
2018-05-18T10:08:36.758Z,9.37
2018-05-18T10:11:04.331Z,11.73
2018-05-18T10:13:31.959Z,14.13
2018-05-18T10:15:59.504Z,12.77
2018-05-18T10:18:27.147Z,9.67
2018-05-18T10:20:54.728Z,11.50
2018-05-18T10:23:22.622Z,9.97
2018-05-18T10:25:50.181Z,10.43
2018-05-18T10:28:17.777Z,6.90
2018-05-18T10:30:45.374Z,9.63
2018-05-18T10:33:12.940Z,9.57
2018-05-18T10:35:40.592Z,9.27
2018-05-18T10:38:08.153Z,11.07
2018-05-18T10:40:35.712Z,9.80
2018-05-18T10:43:03.380Z,10.10
2018-05-18T10:45:30.946Z,11.63
2018-05-18T10:47:58.507Z,8.17
2018-05-18T10:50:26.109Z,9.03
2018-05-18T10:52:53.666Z,10.07
2018-05-18T10:55:21.295Z,7.83
2018-05-18T10:57:48.912Z,8.80
2018-05-18T11:00:16.467Z,8.93
2018-05-18T11:02:44.033Z,7.83
2018-05-18T11:05:11.702Z,12.63
2018-05-18T11:07:39.238Z,7.25
2018-05-18T11:10:06.806Z,6.20
2018-05-18T11:12:35.415Z,7.70
2018-05-18T11:15:02.993Z,8.93
2018-05-18T11:17:31.299Z,7.37
2018-05-18T11:19:59.015Z,8.03
2018-05-18T11:22:26.531Z,8.23
2018-05-18T11:24:54.082Z,7.90
2018-05-18T11:27:21.692Z,10.77
2018-05-18T11:29:49.268Z,7.27
2018-05-18T11:32:16.849Z,5.90
2018-05-18T11:34:46.197Z,13.20
2018-05-18T11:37:13.766Z,7.80
2018-05-18T11:39:41.316Z,7.93
2018-05-18T11:42:08.955Z,12.30
2018-05-18T11:44:36.509Z,8.50
2018-05-18T11:47:04.069Z,9.57
2018-05-18T11:49:31.681Z,6.50
2018-05-18T11:51:59.250Z,6.30
2018-05-18T11:54:26.801Z,11.63
2018-05-18T11:56:54.439Z,10.47
2018-05-18T11:59:22.011Z,7.10
2018-05-18T12:01:49.573Z,9.73
2018-05-18T12:04:17.755Z,12.13
2018-05-18T12:06:45.316Z,5.67
2018-05-18T12:09:12.880Z,6.80
2018-05-18T12:11:40.485Z,8.83
2018-05-18T12:14:08.831Z,9.15
2018-05-18T12:16:36.403Z,9.10
2018-05-18T12:19:04.040Z,7.83
2018-05-18T12:21:31.601Z,5.33
2018-05-18T12:23:59.161Z,8.20
2018-05-18T12:26:26.773Z,6.50
2018-05-18T12:28:55.097Z,7.77
2018-05-18T12:31:22.659Z,7.37
2018-05-18T12:33:50.309Z,7.83
2018-05-18T12:36:17.870Z,6.00
2018-05-18T12:38:45.439Z,8.87
2018-05-18T12:41:13.035Z,8.60
2018-05-18T12:43:40.979Z,6.40
2018-05-18T12:46:08.845Z,7.30
2018-05-18T12:48:36.824Z,5.33
2018-05-18T12:51:04.387Z,7.70
2018-05-18T12:53:31.942Z,6.77
2018-05-18T12:56:00.348Z,10.10
2018-05-18T12:58:27.912Z,5.93
2018-05-18T13:00:55.467Z,6.90
2018-05-18T13:03:23.068Z,3.13
2018-05-18T13:05:50.616Z,6.90
2018-05-18T13:08:21.021Z,6.53
2018-05-18T13:10:48.643Z,7.97
2018-05-18T13:13:16.197Z,5.47
2018-05-18T13:15:43.751Z,7.03
2018-05-18T13:18:11.383Z,5.93
2018-05-18T13:20:39.705Z,7.00
2018-05-18T13:23:07.257Z,8.87
2018-05-18T13:25:34.884Z,5.50
2018-05-18T13:28:03.244Z,4.10
2018-05-18T13:30:30.878Z,5.67
2018-05-18T13:32:58.425Z,4.83
2018-05-18T13:35:26.011Z,5.12
2018-05-18T13:37:53.566Z,8.37
2018-05-18T13:40:21.641Z,4.33
2018-05-18T13:42:49.189Z,5.20
2018-05-18T13:45:16.746Z,5.90
2018-05-18T13:47:44.350Z,7.13
2018-05-18T13:50:11.935Z,6.43
2018-05-18T13:52:40.257Z,6.12
2018-05-18T13:55:07.889Z,8.83
2018-05-18T13:57:35.444Z,7.10
2018-05-18T14:00:03.001Z,3.13
2018-05-18T14:02:31.410Z,6.77
2018-05-18T14:04:58.966Z,5.80
2018-05-18T14:07:26.516Z,6.60
2018-05-18T14:09:54.157Z,5.23
2018-05-18T14:12:22.482Z,3.70
2018-05-18T14:14:50.036Z,6.13
2018-05-18T14:17:17.679Z,3.93
2018-05-18T14:19:45.251Z,4.17
2018-05-18T14:22:12.810Z,3.83
2018-05-18T14:24:40.422Z,7.57
2018-05-18T14:27:07.988Z,5.87
2018-05-18T14:29:35.553Z,6.70
2018-05-18T14:32:03.192Z,7.03
2018-05-18T14:34:30.747Z,7.17
2018-05-18T14:36:58.305Z,7.05
2018-05-18T14:39:26.837Z,10.73
2018-05-18T14:41:55.166Z,5.50
2018-05-18T14:44:22.730Z,5.20
2018-05-18T14:46:50.331Z,6.60
2018-05-18T14:49:18.652Z,5.90
2018-05-18T14:51:46.213Z,8.30
2018-05-18T14:54:13.819Z,6.20
2018-05-18T14:56:42.720Z,6.90
2018-05-18T14:59:10.272Z,5.27
2018-05-18T15:01:37.897Z,10.10
2018-05-18T15:04:05.457Z,5.00
2018-05-18T15:06:33.013Z,4.17
2018-05-18T15:09:00.999Z,5.13
2018-05-18T15:11:28.557Z,3.97
2018-05-18T15:13:56.105Z,7.30
2018-05-18T15:16:23.755Z,5.40
2018-05-18T15:18:51.267Z,6.63
2018-05-18T15:21:18.821Z,8.20
2018-05-18T15:23:46.454Z,6.97
2018-05-18T15:26:16.232Z,4.33
2018-05-18T15:28:43.871Z,6.37
2018-05-18T15:31:12.638Z,7.43
2018-05-18T15:33:40.206Z,6.00
2018-05-18T15:36:07.749Z,5.90
2018-05-18T15:38:35.349Z,5.03
2018-05-18T15:41:02.906Z,9.20
2018-05-18T15:43:30.468Z,7.30
2018-05-18T15:45:58.068Z,7.10
2018-05-18T15:48:25.842Z,5.93
2018-05-18T15:50:53.418Z,5.83
2018-05-18T15:53:21.026Z,7.27
2018-05-18T15:55:48.578Z,5.30
2018-05-18T15:58:16.135Z,6.13
2018-05-18T16:00:43.748Z,8.43
2018-05-18T16:03:11.292Z,8.60
2018-05-18T16:05:39.613Z,7.20
2018-05-18T16:08:07.690Z,6.10
2018-05-18T16:10:35.253Z,6.50
2018-05-18T16:13:02.812Z,7.70
2018-05-18T16:15:30.419Z,6.67
2018-05-18T16:17:58.752Z,7.03
2018-05-18T16:20:26.323Z,7.13
2018-05-18T16:22:53.974Z,8.30
2018-05-18T16:25:21.584Z,9.67
2018-05-18T16:27:49.162Z,9.63
2018-05-18T16:30:16.741Z,8.53
2018-05-18T16:32:44.298Z,7.77
2018-05-18T16:35:11.868Z,7.43
2018-05-18T16:37:40.273Z,6.90
2018-05-18T16:40:07.863Z,6.43
2018-05-18T16:42:35.398Z,8.38
2018-05-18T16:45:03.024Z,8.47
2018-05-18T16:47:30.586Z,8.93
2018-05-18T16:49:58.142Z,6.47
2018-05-18T16:52:26.658Z,10.80
2018-05-18T16:54:54.214Z,7.67
2018-05-18T16:57:21.781Z,12.03
2018-05-18T16:59:50.279Z,7.30
2018-05-18T17:02:17.837Z,10.60
2018-05-18T17:04:45.386Z,9.23
2018-05-18T17:07:13.447Z,9.73
2018-05-18T17:09:40.964Z,7.17
2018-05-18T17:12:09.290Z,9.30
2018-05-18T17:14:37.660Z,7.40
2018-05-18T17:17:05.235Z,9.10
2018-05-18T17:19:32.796Z,10.70
2018-05-18T17:22:01.997Z,7.50
2018-05-18T17:24:29.543Z,11.03
2018-05-18T17:26:57.406Z,17.07
2018-05-18T17:29:25.760Z,10.90
2018-05-18T17:31:53.356Z,11.40
2018-05-18T17:34:20.913Z,9.17
2018-05-18T17:36:48.512Z,8.10
2018-05-18T17:39:16.072Z,9.83
2018-05-18T17:41:43.630Z,9.03
2018-05-18T17:44:11.234Z,11.60
2018-05-18T17:46:38.793Z,9.23
2018-05-18T17:49:06.355Z,11.97
2018-05-18T17:51:33.970Z,9.30
2018-05-18T17:54:01.528Z,9.83
2018-05-18T17:56:29.091Z,14.00
2018-05-18T17:58:56.706Z,9.13
2018-05-18T18:01:24.275Z,12.80
2018-05-18T18:03:51.838Z,13.17
2018-05-18T18:06:19.489Z,11.53
2018-05-18T18:08:47.057Z,11.00
2018-05-18T18:11:14.641Z,9.17
2018-05-18T18:13:42.221Z,16.13
2018-05-18T18:16:09.780Z,8.97
2018-05-18T18:18:37.339Z,11.07
2018-05-18T18:21:04.971Z,11.30
2018-05-18T18:23:32.570Z,14.60
2018-05-18T18:26:00.093Z,11.70
2018-05-18T18:30:56.065Z,9.77
2018-05-18T18:33:23.614Z,13.03
2018-05-18T18:35:52.107Z,10.73
2018-05-18T18:38:19.675Z,12.70
2018-05-18T18:40:47.295Z,12.87
2018-05-18T18:43:14.853Z,10.37
2018-05-18T18:45:42.423Z,13.27
2018-05-18T18:48:10.031Z,14.17
2018-05-18T18:50:37.658Z,10.33
2018-05-18T18:53:05.213Z,11.45
2018-05-18T18:55:32.905Z,13.40
2018-05-18T18:58:00.551Z,13.63
2018-05-18T19:00:28.135Z,15.10
2018-05-18T19:02:55.717Z,14.03
2018-05-18T19:05:24.437Z,14.05
2018-05-18T19:07:52.057Z,13.03
2018-05-18T19:10:19.550Z,14.03
2018-05-18T19:12:47.601Z,15.37
2018-05-18T19:15:15.225Z,17.53
2018-05-18T19:17:42.729Z,12.23
2018-05-18T19:20:11.109Z,11.67
2018-05-18T19:22:39.436Z,11.10
2018-05-18T19:25:07.004Z,11.10
2018-05-18T19:27:34.622Z,12.20
2018-05-18T19:30:02.971Z,13.40
2018-05-18T19:32:30.527Z,12.30
2018-05-18T19:34:58.593Z,13.23
2018-05-18T19:37:26.142Z,11.47
2018-05-18T19:39:53.703Z,14.63
2018-05-18T19:42:21.316Z,13.77
2018-05-18T19:44:48.877Z,16.67
2018-05-18T19:47:17.219Z,11.80
2018-05-18T19:49:45.892Z,11.90
2018-05-18T19:52:13.456Z,16.73
2018-05-18T19:54:41.035Z,17.50
2018-05-18T19:57:09.402Z,18.93
2018-05-18T19:59:36.953Z,15.50
2018-05-18T20:02:04.512Z,14.60
2018-05-18T20:04:32.122Z,13.60
2018-05-18T20:06:59.725Z,16.93
2018-05-18T20:09:27.276Z,15.63
2018-05-18T20:11:54.886Z,14.17
2018-05-18T20:14:22.466Z,16.13
2018-05-18T20:16:50.790Z,15.82
2018-05-18T20:19:18.390Z,16.97
2018-05-18T20:21:45.947Z,14.37
2018-05-18T20:24:13.516Z,15.80
2018-05-18T20:26:41.126Z,18.57
2018-05-18T20:29:08.714Z,12.63
2018-05-18T20:31:36.242Z,19.00
2018-05-18T20:34:03.836Z,23.43
2018-05-18T20:36:31.400Z,11.47
2018-05-18T20:38:58.957Z,11.87
2018-05-18T20:41:26.605Z,13.33
2018-05-18T20:43:54.169Z,15.37
2018-05-18T20:46:21.728Z,12.13
2018-05-18T20:48:49.336Z,12.97
2018-05-18T20:51:16.894Z,17.93
2018-05-18T20:53:44.463Z,16.23
2018-05-18T20:56:12.870Z,13.90
2018-05-18T20:58:40.444Z,15.77
2018-05-18T21:01:08.007Z,15.53
2018-05-18T21:03:35.637Z,14.07
2018-05-18T21:06:03.192Z,18.47
2018-05-18T21:08:31.518Z,17.20
2018-05-18T21:10:59.147Z,16.37
2018-05-18T21:13:26.705Z,16.57
2018-05-18T21:15:54.296Z,14.70
2018-05-18T21:18:22.011Z,17.20
2018-05-18T21:20:50.252Z,13.03
2018-05-18T21:23:17.815Z,15.70
2018-05-18T21:25:45.437Z,13.90
2018-05-18T21:28:12.995Z,18.77
2018-05-18T21:30:40.551Z,15.13
2018-05-18T21:33:08.150Z,18.43
2018-05-18T21:35:35.715Z,22.33
2018-05-18T21:38:03.272Z,14.43
2018-05-18T21:40:30.873Z,16.93
2018-05-18T21:42:58.430Z,16.30
2018-05-18T21:45:25.995Z,19.05
2018-05-18T21:47:53.650Z,20.85
2018-05-18T21:50:21.250Z,17.63
2018-05-18T21:52:48.810Z,15.53
2018-05-18T21:55:16.433Z,16.77
2018-05-18T21:57:43.986Z,16.03
2018-05-18T22:00:11.552Z,19.37
2018-05-18T22:02:39.156Z,21.42
2018-05-18T22:05:06.721Z,17.43
2018-05-18T22:07:34.287Z,15.77
2018-05-18T22:10:01.895Z,18.57
2018-05-18T22:12:29.457Z,16.98
2018-05-18T22:14:59.070Z,20.20
2018-05-18T22:17:26.667Z,16.67
2018-05-18T22:19:55.011Z,17.05
2018-05-18T22:22:22.579Z,17.43
2018-05-18T22:24:50.200Z,18.73
2018-05-18T22:27:17.758Z,17.73
2018-05-18T22:29:45.317Z,13.57
2018-05-18T22:32:12.908Z,12.97
2018-05-18T22:34:40.473Z,16.53
2018-05-18T22:37:08.275Z,17.30
2018-05-18T22:39:36.634Z,18.07
2018-05-18T22:42:04.207Z,24.07
2018-05-18T22:44:31.765Z,19.23
2018-05-18T22:46:59.386Z,13.80
2018-05-18T22:49:26.946Z,15.65
2018-05-18T22:51:54.507Z,19.73
2018-05-18T22:54:22.142Z,14.70
2018-05-18T22:56:49.664Z,15.90
2018-05-18T22:59:17.238Z,13.03
2018-05-18T23:01:44.832Z,20.05
2018-05-18T23:04:12.389Z,16.23
2018-05-18T23:06:53.539Z,16.17
2018-05-18T23:09:21.093Z,19.33
2018-05-18T23:11:48.653Z,19.57
2018-05-18T23:14:16.244Z,18.63
2018-05-18T23:16:43.827Z,17.20
2018-05-18T23:19:11.389Z,15.60
2018-05-18T23:21:38.983Z,19.67
2018-05-18T23:24:06.538Z,31.97
2018-05-18T23:26:34.095Z,22.30
2018-05-18T23:29:01.733Z,22.10
2018-05-18T23:31:29.290Z,16.50
2018-05-18T23:33:56.851Z,18.13
2018-05-18T23:36:24.452Z,14.80
2018-05-18T23:38:52.008Z,16.12
2018-05-18T23:41:19.586Z,19.80
2018-05-18T23:43:47.175Z,16.87
2018-05-18T23:46:15.507Z,17.75
2018-05-18T23:48:43.108Z,23.57
2018-05-18T23:51:10.690Z,13.97
2018-05-18T23:53:38.262Z,18.20
2018-05-18T23:56:05.821Z,13.87
2018-05-18T23:58:33.418Z,17.67
